Time;durP1;ratioP1;P1;durP2;ratioP2;P2;SDS_P1;SDS_P2;PMS_P1;PMS_P2;Temp;Humidity;BMP_temperature;BMP_pressure;BME280_temperature;BME280_humidity;BME280_pressure;Samples;Min_cycle;Max_cycle;Signal;HPM_P1;HPM_P2
2023/06/12 00:01:40;;;;;;;9.65;8.25;;;;;;;14.65;100.00;94992.72;5060317;28;20028;-81
2023/06/12 00:04:06;;;;;;;10.10;7.72;;;;;;;14.64;100.00;94993.72;5061254;28;20554;-83
2023/06/12 00:06:33;;;;;;;11.38;8.30;;;;;;;14.57;100.00;94971.25;5060101;28;20063;-82
2023/06/12 00:08:59;;;;;;;9.95;8.75;;;;;;;14.53;100.00;94962.19;5061126;28;20402;-85
2023/06/12 00:11:25;;;;;;;9.95;8.60;;;;;;;14.44;100.00;94943.34;5060399;28;20081;-81
2023/06/12 00:13:52;;;;;;;10.40;9.18;;;;;;;14.47;100.00;94934.31;5044382;28;20059;-87
2023/06/12 00:16:17;;;;;;;11.52;8.40;;;;;;;14.64;100.00;94930.38;5060429;28;20039;-86
2023/06/12 00:18:43;;;;;;;10.13;9.13;;;;;;;14.70;100.00;94917.34;5060516;28;20375;-83
2023/06/12 00:21:10;;;;;;;9.10;8.18;;;;;;;14.68;100.00;94913.31;5044288;28;20500;-85
2023/06/12 00:23:40;;;;;;;15.32;8.20;;;;;;;14.74;100.00;94921.16;5043402;28;20777;-83
2023/06/12 00:26:05;;;;;;;;;;;;;;;14.66;100.00;94923.97;5044960;28;20127;-83
2023/06/12 00:28:31;;;;;;;11.10;10.20;;;;;;;14.60;100.00;94927.34;5039716;28;19983;-84
2023/06/12 00:30:57;;;;;;;10.45;9.18;;;;;;;14.64;100.00;94938.97;5024114;28;20037;-84
2023/06/12 00:33:22;;;;;;;10.05;9.13;;;;;;;14.54;100.00;94935.16;5043110;28;20947;-84
2023/06/12 00:35:48;;;;;;;9.48;8.77;;;;;;;14.57;100.00;94939.97;5043713;28;20024;-84
2023/06/12 00:38:15;;;;;;;8.70;8.07;;;;;;;14.61;100.00;94935.94;5043742;28;20107;-82
2023/06/12 00:40:40;;;;;;;11.05;10.05;;;;;;;14.62;100.00;94919.31;5042964;28;20086;-82
2023/06/12 00:43:08;;;;;;;10.13;9.23;;;;;;;14.52;100.00;94935.31;5060543;28;20067;-83
2023/06/12 00:45:34;;;;;;;12.82;9.00;;;;;;;14.55;100.00;94950.56;5043190;28;20893;-81
2023/06/12 00:48:00;;;;;;;8.43;7.63;;;;;;;14.38;100.00;94946.72;5060219;28;20108;-81
2023/06/12 00:50:29;;;;;;;9.07;8.25;;;;;;;14.30;100.00;94944.22;5042772;28;20112;-82
2023/06/12 00:52:58;;;;;;;;;;;;;;;14.45;100.00;94957.16;5031412;28;20037;-84
2023/06/12 00:55:24;;;;;;;9.07;8.15;;;;;;;14.43;100.00;94951.31;5076343;28;20042;-83
2023/06/12 00:57:51;;;;;;;10.02;8.05;;;;;;;14.45;100.00;94957.16;5041782;28;20135;-83
2023/06/12 01:00:17;;;;;;;9.10;7.78;;;;;;;14.42;100.00;94960.94;5043762;28;20020;-84
2023/06/12 01:02:45;;;;;;;10.48;8.57;;;;;;;14.47;100.00;94965.59;5058899;28;20076;-83
2023/06/12 01:05:17;;;;;;;8.13;7.45;;;;;;;14.40;100.00;94970.78;5043485;28;20041;-83
2023/06/12 01:08:03;;;;;;;7.85;7.22;;;;;;;14.30;100.00;94970.28;5042372;28;20036;-83
2023/06/12 01:10:58;;;;;;;11.70;8.93;;;;;;;14.13;100.00;94988.03;5061647;28;20032;-84
2023/06/12 01:13:24;;;;;;;8.68;7.95;;;;;;;14.30;100.00;94996.34;5049908;28;20857;-84
2023/06/12 01:15:50;;;;;;;9.90;8.40;;;;;;;14.42;100.00;94994.81;5041994;28;20020;-83
2023/06/12 01:18:17;;;;;;;9.20;7.53;;;;;;;14.51;100.00;94978.03;5043117;28;20078;-85
2023/06/12 01:20:43;;;;;;;11.02;7.45;;;;;;;14.52;100.00;94956.19;5042158;28;20526;-82
2023/06/12 01:23:13;;;;;;;8.88;7.13;;;;;;;14.45;100.00;94954.56;5042922;28;20024;-84
2023/06/12 01:26:28;;;;;;;8.15;7.50;;;;;;;14.37;100.00;94941.69;5059641;28;20028;-86
2023/06/12 01:29:29;;;;;;;7.88;7.15;;;;;;;14.42;100.00;94934.88;5033629;28;20480;-83
2023/06/12 01:32:07;;;;;;;9.82;6.70;;;;;;;14.58;100.00;94905.88;5047634;28;20585;-84
2023/06/12 01:34:54;;;;;;;7.45;6.90;;;;;;;14.66;100.00;94871.81;5045452;28;20486;-81
2023/06/12 01:37:45;;;;;;;8.82;7.80;;;;;;;14.58;100.00;94869.38;5042318;28;20417;-83
2023/06/12 01:40:12;;;;;;;8.98;7.43;;;;;;;14.59;100.00;94868.38;5059523;28;20123;-83
2023/06/12 01:42:38;;;;;;;7.78;7.05;;;;;;;14.63;100.00;94864.41;5058609;28;20117;-82
2023/06/12 01:45:05;;;;;;;7.43;6.88;;;;;;;14.60;100.00;94867.41;5059119;28;20028;-84
2023/06/12 01:47:31;;;;;;;8.52;7.72;;;;;;;14.49;100.00;94870.56;5059492;28;20044;-84
2023/06/12 01:49:57;;;;;;;8.85;7.35;;;;;;;14.65;100.00;94888.44;5059996;28;20567;-85
2023/06/12 01:52:22;;;;;;;8.88;7.10;;;;;;;14.66;100.00;94894.47;5034186;28;20025;-85
2023/06/12 01:54:48;;;;;;;10.05;7.55;;;;;;;14.67;100.00;94878.63;5052833;28;20025;-84
2023/06/12 01:57:14;;;;;;;8.35;7.68;;;;;;;14.73;100.00;94872.66;5042635;28;20036;-85
2023/06/12 01:59:39;;;;;;;7.90;7.30;;;;;;;14.72;100.00;94865.00;5041601;28;20043;-84
2023/06/12 02:02:05;;;;;;;7.68;6.68;;;;;;;14.83;100.00;94882.69;5042127;28;20036;-87
2023/06/12 02:04:31;;;;;;;10.38;8.60;;;;;;;14.70;100.00;94891.25;5042280;28;20502;-86
2023/06/12 02:06:56;;;;;;;9.55;8.75;;;;;;;14.47;100.00;94909.06;5042355;28;20029;-85
2023/06/12 02:09:22;;;;;;;9.77;8.98;;;;;;;14.45;100.00;94939.72;5044754;28;20031;-87
2023/06/12 02:11:48;;;;;;;8.88;8.02;;;;;;;14.54;100.00;94975.06;5062585;28;20107;-85
2023/06/12 02:14:14;;;;;;;8.75;7.93;;;;;;;14.57;100.00;94982.47;5046438;28;20862;-84
2023/06/12 02:16:40;;;;;;;8.57;7.90;;;;;;;14.57;100.00;94995.50;5045457;28;20028;-84
2023/06/12 02:19:05;;;;;;;8.77;7.55;;;;;;;14.53;100.00;95001.31;5063265;28;20508;-85
2023/06/12 02:21:31;;;;;;;8.15;7.45;;;;;;;14.61;100.00;95009.75;5045972;28;20033;-87
2023/06/12 02:23:56;;;;;;;8.65;7.85;;;;;;;14.67;100.00;95008.97;5046444;28;20030;-85
2023/06/12 02:26:22;;;;;;;8.88;8.05;;;;;;;14.52;100.00;94994.47;5046256;28;20486;-87
2023/06/12 02:29:05;;;;;;;8.48;7.68;;;;;;;14.49;100.00;94998.28;5062746;28;20807;-87
2023/06/12 02:37:55;;;;;;;8.50;7.65;;;;;;;14.55;100.00;95009.72;5062557;28;20098;-88
2023/06/12 02:40:21;;;;;;;9.27;8.50;;;;;;;14.63;100.00;94993.94;5035096;28;20024;-87
2023/06/12 02:42:48;;;;;;;13.38;8.63;;;;;;;14.64;100.00;94998.94;5045794;28;20032;-89
2023/06/12 02:45:14;;;;;;;10.40;7.25;;;;;;;14.49;100.00;94994.84;5046963;28;20191;-86
2023/06/12 02:47:39;;;;;;;8.18;7.43;;;;;;;14.47;100.00;95002.06;5045341;28;20456;-83
2023/06/12 02:50:05;;;;;;;8.95;7.47;;;;;;;14.42;100.00;94996.63;5045672;28;20536;-86
2023/06/12 02:52:31;;;;;;;11.57;7.25;;;;;;;14.43;100.00;95001.66;5062398;28;20032;-84
2023/06/12 02:54:56;;;;;;;9.98;7.57;;;;;;;14.37;100.00;95015.44;5061988;28;20098;-84
2023/06/12 02:57:40;;;;;;;8.90;7.93;;;;;;;14.32;100.00;95033.41;5046164;28;20553;-84
2023/06/12 03:00:09;;;;;;;14.20;8.80;;;;;;;14.38;100.00;95050.13;5061741;28;20116;-85
2023/06/12 03:02:36;;;;;;;8.48;7.68;;;;;;;14.46;100.00;95063.00;5063444;28;20093;-86
2023/06/12 03:05:04;;;;;;;8.23;7.55;;;;;;;14.62;100.00;95060.91;5045329;28;20043;-84
2023/06/12 03:07:29;;;;;;;9.43;8.20;;;;;;;14.64;100.00;95050.28;5045036;28;20020;-84
2023/06/12 03:09:55;;;;;;;9.18;8.27;;;;;;;14.51;100.00;95032.75;5045685;28;20078;-83
2023/06/12 03:12:32;;;;;;;8.80;8.20;;;;;;;14.51;100.00;95019.72;5044266;28;20040;-85
2023/06/12 03:14:59;;;;;;;9.27;7.85;;;;;;;14.65;100.00;95028.41;5062285;28;20497;-89
2023/06/12 03:17:24;;;;;;;12.50;8.75;;;;;;;14.77;100.00;95026.84;5028581;28;20482;-91
2023/06/12 03:19:50;;;;;;;8.38;7.55;;;;;;;14.81;100.00;94998.59;5045764;28;20111;-85
2023/06/12 03:22:15;;;;;;;8.27;7.57;;;;;;;14.90;100.00;94979.97;5062043;28;20029;-85
2023/06/12 03:24:41;;;;;;;8.77;7.82;;;;;;;14.84;100.00;94946.84;5044961;28;20025;-84
2023/06/12 03:27:08;;;;;;;10.40;7.30;;;;;;;14.84;100.00;94938.22;5045799;28;20112;-86
2023/06/12 03:29:34;;;;;;;7.35;6.63;;;;;;;15.19;100.00;94929.25;5044992;28;20115;-90
2023/06/12 03:31:59;;;;;;;7.47;6.05;;;;;;;15.97;100.00;94821.34;5062612;28;20534;-86
2023/06/12 03:34:25;;;;;;;6.28;5.68;;;;;;;15.80;100.00;94745.25;5043600;28;20036;-86
2023/06/12 03:36:50;;;;;;;5.28;4.78;;;;;;;16.96;100.00;94624.56;5045351;28;20040;-83
2023/06/12 03:39:16;;;;;;;6.10;5.57;;;;;;;16.91;100.00;94543.31;5044076;28;20016;-83
2023/06/12 03:41:53;;;;;;;5.80;5.30;;;;;;;17.97;100.00;94438.66;5044477;28;20017;-83
2023/06/12 03:44:19;;;;;;;5.13;4.72;;;;;;;19.24;100.00;94364.78;5044846;28;20584;-83
2023/06/12 03:46:45;;;;;;;6.72;6.20;;;;;;;19.42;100.00;94335.66;5043526;28;20120;-83
2023/06/12 03:49:10;;;;;;;6.32;5.70;;;;;;;19.80;100.00;94313.09;5044936;28;20050;-83
2023/06/12 03:51:35;;;;;;;5.53;4.63;;;;;;;19.79;100.00;94295.72;5060127;28;20090;-83
2023/06/12 03:54:01;;;;;;;5.00;3.70;;;;;;;19.97;100.00;94305.97;5044912;28;20067;-84
2023/06/12 03:56:27;;;;;;;4.35;3.95;;;;;;;19.77;100.00;94303.88;5043282;28;20024;-82
2023/06/12 03:58:52;;;;;;;4.90;3.45;;;;;;;20.47;100.00;94301.31;5044752;28;20025;-84
2023/06/12 04:01:18;;;;;;;3.75;3.42;;;;;;;20.68;100.00;94301.50;5044283;28;20524;-83
2023/06/12 04:03:44;;;;;;;3.85;3.55;;;;;;;20.07;100.00;94302.66;5043469;28;20505;-82
2023/06/12 04:06:10;;;;;;;4.63;3.53;;;;;;;19.15;100.00;94334.72;5044767;28;20119;-83
2023/06/12 04:08:37;;;;;;;8.07;4.80;;;;;;;19.98;100.00;94326.72;5043317;28;20133;-82
2023/06/12 04:11:03;;;;;;;5.38;4.28;;;;;;;21.13;100.00;94299.28;5061266;28;20035;-82
2023/06/12 04:13:29;;;;;;;4.47;3.70;;;;;;;21.54;100.00;94295.09;5043043;28;20924;-82
2023/06/12 04:15:57;;;;;;;5.72;5.00;;;;;;;20.28;100.00;94297.41;5030752;28;20071;-83
2023/06/12 04:18:23;;;;;;;7.97;4.88;;;;;;;20.15;100.00;94329.31;5043796;28;20021;-83
2023/06/12 04:20:49;;;;;;;5.93;4.95;;;;;;;19.44;100.00;94340.69;5060406;28;20024;-77
2023/06/12 04:23:16;;;;;;;12.23;5.40;;;;;;;18.70;100.00;94375.91;5062193;28;20027;-77
2023/06/12 04:25:42;;;;;;;7.00;5.47;;;;;;;18.45;100.00;94407.69;5058875;28;20418;-77
2023/06/12 04:28:13;;;;;;;7.50;5.68;;;;;;;18.89;100.00;94412.22;5061407;28;20097;-77
2023/06/12 04:30:38;;;;;;;9.77;5.38;;;;;;;18.87;100.00;94419.56;5059968;28;20032;-79
2023/06/12 04:33:04;;;;;;;5.70;5.18;;;;;;;18.91;100.00;94419.88;5060092;28;20405;-79
2023/06/12 04:35:30;;;;;;;9.40;5.95;;;;;;;19.12;100.00;94402.66;5061104;28;20480;-79
2023/06/12 04:37:56;;;;;;;8.18;5.63;;;;;;;19.43;100.00;94376.69;5043688;28;20052;-79
2023/06/12 04:40:22;;;;;;;6.38;5.70;;;;;;;19.23;100.00;94371.06;5060523;28;20103;-79
2023/06/12 04:42:47;;;;;;;8.65;5.20;;;;;;;19.39;100.00;94372.91;5059412;28;20463;-79
2023/06/12 04:45:13;;;;;;;8.43;5.63;;;;;;;19.36;100.00;94376.00;5039638;28;20120;-79
2023/06/12 04:47:39;;;;;;;7.93;4.95;;;;;;;19.38;100.00;94381.84;5049450;28;20401;-79
2023/06/12 04:50:06;;;;;;;6.38;5.13;;;;;;;19.36;100.00;94360.25;5060739;28;20401;-79
2023/06/12 04:52:32;;;;;;;5.05;4.60;;;;;;;19.41;100.00;94357.75;5041371;28;20039;-79
2023/06/12 04:54:59;;;;;;;7.88;5.65;;;;;;;19.32;100.00;94374.13;5042593;28;20082;-79
2023/06/12 04:57:25;;;;;;;7.13;5.18;;;;;;;19.30;100.00;94391.91;5059650;28;20040;-78
2023/06/12 04:59:52;;;;;;;6.20;5.70;;;;;;;19.13;100.00;94399.81;5042874;28;20032;-78
2023/06/12 05:02:17;;;;;;;7.35;5.45;;;;;;;19.17;100.00;94415.88;5059677;28;20106;-80
2023/06/12 05:04:43;;;;;;;7.80;6.45;;;;;;;19.21;100.00;94407.28;5042201;28;20032;-79
2023/06/12 05:07:14;;;;;;;7.22;6.30;;;;;;;19.75;100.00;94391.84;5043514;28;20056;-78
2023/06/12 05:09:48;;;;;;;7.28;6.18;;;;;;;19.68;100.00;94372.84;5059022;28;20040;-79
2023/06/12 05:12:14;;;;;;;7.68;6.85;;;;;;;19.54;100.00;94377.63;5061131;28;20054;-79
2023/06/12 05:14:41;;;;;;;7.38;5.55;;;;;;;20.01;100.00;94357.00;5042533;28;20028;-78
2023/06/12 05:17:07;;;;;;;6.80;5.63;;;;;;;20.37;100.00;94356.44;5043065;28;20028;-79
2023/06/12 05:19:32;;;;;;;6.95;5.40;;;;;;;20.45;100.00;94337.56;5059889;28;20016;-79
2023/06/12 05:21:58;;;;;;;6.20;5.60;;;;;;;20.38;100.00;94346.72;5058663;28;20053;-79
2023/06/12 05:24:23;;;;;;;7.22;6.72;;;;;;;20.03;100.00;94331.28;5061244;28;20020;-80
2023/06/12 05:26:50;;;;;;;8.68;6.78;;;;;;;20.05;100.00;94344.97;5041981;28;20028;-79
2023/06/12 05:29:16;;;;;;;6.78;6.10;;;;;;;20.29;100.00;94358.72;5043260;28;20023;-79
2023/06/12 05:31:41;;;;;;;8.43;6.95;;;;;;;19.89;100.00;94366.84;5042246;28;20119;-80
2023/06/12 05:34:07;;;;;;;9.77;7.07;;;;;;;19.66;100.00;94373.09;5059595;28;20111;-78
2023/06/12 05:36:33;;;;;;;7.53;6.38;;;;;;;19.93;100.00;94371.38;5059430;28;20021;-80
2023/06/12 05:38:58;;;;;;;6.95;6.30;;;;;;;20.22;100.00;94363.31;5058979;28;20127;-80
2023/06/12 05:41:25;;;;;;;7.55;5.80;;;;;;;20.58;100.00;94349.53;5059709;28;20082;-80
2023/06/12 05:43:50;;;;;;;7.25;6.53;;;;;;;20.69;100.00;94342.56;5055468;28;20417;-80
2023/06/12 05:46:16;;;;;;;7.50;6.10;;;;;;;20.98;100.00;94331.53;5059683;28;20012;-80
2023/06/12 05:48:41;;;;;;;11.25;6.55;;;;;;;20.74;100.00;94332.88;5058384;28;20553;-79
2023/06/12 05:51:07;;;;;;;7.03;6.43;;;;;;;22.87;100.00;94325.22;5059638;28;20052;-79
2023/06/12 05:53:35;;;;;;;6.75;5.47;;;;;;;27.66;73.35;94304.91;5041615;28;20037;-81
2023/06/12 05:56:01;;;;;;;5.43;4.82;;;;;;;25.82;75.01;94298.06;5058067;28;20042;-79
2023/06/12 05:58:26;;;;;;;9.35;5.85;;;;;;;23.75;91.32;94291.38;5057047;28;20033;-80
2023/06/12 06:00:53;;;;;;;8.93;5.63;;;;;;;23.45;98.68;94299.34;5055203;28;20086;-79
2023/06/12 06:03:19;;;;;;;5.95;4.97;;;;;;;25.15;85.41;94302.38;5057206;28;20052;-80
2023/06/12 06:05:46;;;;;;;5.18;4.63;;;;;;;24.74;88.40;94302.88;5039705;28;20456;-80
2023/06/12 06:08:12;;;;;;;5.97;5.32;;;;;;;25.07;80.30;94296.88;5057997;28;20537;-79
2023/06/12 06:10:38;;;;;;;5.13;4.40;;;;;;;25.58;80.57;94303.38;5058360;28;20025;-79
2023/06/12 06:13:04;;;;;;;7.95;5.05;;;;;;;24.55;78.36;94306.19;5042286;28;20020;-78
2023/06/12 06:15:30;;;;;;;6.03;5.50;;;;;;;24.05;83.45;94301.84;5057352;28;20035;-78
2023/06/12 06:17:56;;;;;;;5.15;4.72;;;;;;;23.40;93.98;94307.31;5039932;28;20016;-79
2023/06/12 06:20:22;;;;;;;5.13;4.65;;;;;;;26.45;70.39;94297.91;5059526;28;20831;-80
2023/06/12 06:22:47;;;;;;;5.05;4.00;;;;;;;25.64;74.21;94296.13;5056426;28;20025;-80
2023/06/12 06:25:15;;;;;;;4.30;3.90;;;;;;;24.35;77.46;94298.34;5056645;28;20413;-80
2023/06/12 06:27:40;;;;;;;4.85;4.43;;;;;;;23.95;79.96;94301.88;5054163;28;20024;-82
2023/06/12 06:30:06;;;;;;;6.68;4.25;;;;;;;23.73;86.46;94300.66;5037405;28;20047;-80
2023/06/12 06:32:32;;;;;;;6.85;4.00;;;;;;;24.31;86.87;94289.34;5056148;28;20040;-80
2023/06/12 06:34:57;;;;;;;4.55;4.15;;;;;;;23.60;90.66;94297.47;5055864;28;20025;-80
2023/06/12 06:37:23;;;;;;;3.85;3.58;;;;;;;23.50;88.42;94300.13;5032043;28;20057;-79
2023/06/12 06:39:48;;;;;;;4.05;3.40;;;;;;;24.34;87.72;94303.91;5056237;28;20678;-77
2023/06/12 06:42:14;;;;;;;3.60;3.30;;;;;;;24.67;82.29;94292.59;5056361;28;20342;-77
2023/06/12 06:44:39;;;;;;;6.65;3.55;;;;;;;24.04;82.22;94295.00;5056514;28;20025;-78
2023/06/12 06:47:07;;;;;;;3.80;3.47;;;;;;;24.70;82.08;94293.91;5059037;28;20086;-78
2023/06/12 06:49:32;;;;;;;4.90;3.40;;;;;;;24.66;79.15;94301.59;5041146;28;20570;-78
2023/06/12 06:51:58;;;;;;;7.03;3.65;;;;;;;24.11;79.90;94300.00;5060276;28;20024;-79
2023/06/12 06:54:23;;;;;;;4.78;3.35;;;;;;;24.64;81.54;94293.16;5058129;28;20047;-77
2023/06/12 06:56:50;;;;;;;4.18;3.50;;;;;;;24.14;79.77;94297.59;5061777;28;20871;-78
2023/06/12 06:59:16;;;;;;;4.70;2.97;;;;;;;23.99;78.74;94288.91;5060903;28;20119;-79
2023/06/12 07:01:41;;;;;;;5.10;3.60;;;;;;;24.14;78.42;94289.66;5060781;28;20112;-78
2023/06/12 07:04:07;;;;;;;7.45;3.28;;;;;;;23.30;77.27;94284.28;5059872;28;20040;-77
2023/06/12 07:06:33;;;;;;;3.58;3.05;;;;;;;24.21;81.63;94289.38;5047696;28;20083;-79
2023/06/12 07:09:00;;;;;;;5.43;3.55;;;;;;;24.36;75.79;94285.88;5053558;28;20024;-78
2023/06/12 07:11:26;;;;;;;3.40;3.10;;;;;;;24.00;76.90;94282.56;5042624;28;20032;-78
2023/06/12 07:13:52;;;;;;;4.00;2.80;;;;;;;23.66;80.12;94285.06;5045143;28;20047;-76
2023/06/12 07:16:18;;;;;;;4.25;3.13;;;;;;;23.73;77.07;94293.47;5061077;28;20289;-76
2023/06/12 07:18:44;;;;;;;3.85;3.10;;;;;;;23.73;75.91;94290.06;5043729;28;20036;-76
2023/06/12 07:21:10;;;;;;;6.95;3.10;;;;;;;23.30;79.45;94278.19;5052884;28;20394;-76
2023/06/12 07:23:35;;;;;;;3.35;2.85;;;;;;;24.03;80.60;94279.38;5051539;28;20060;-77
2023/06/12 07:26:01;;;;;;;4.22;3.40;;;;;;;24.80;81.83;94273.44;5055574;28;20111;-78
2023/06/12 07:28:26;;;;;;;5.10;3.05;;;;;;;25.20;80.75;94277.69;5061972;28;20709;-80
2023/06/12 07:30:52;;;;;;;3.97;3.25;;;;;;;25.06;75.35;94274.06;5062281;28;20409;-78
2023/06/12 07:33:17;;;;;;;3.97;2.80;;;;;;;25.28;76.62;94277.06;5061250;28;20431;-77
2023/06/12 07:35:43;;;;;;;3.30;2.78;;;;;;;25.18;73.56;94277.94;5061003;28;20037;-80
2023/06/12 07:38:08;;;;;;;4.97;2.90;;;;;;;24.39;74.04;94272.91;5043798;28;20111;-79
2023/06/12 07:40:34;;;;;;;5.75;3.08;;;;;;;25.30;79.21;94277.56;5049461;28;20029;-77
2023/06/12 07:42:59;;;;;;;3.13;2.80;;;;;;;24.18;81.45;94266.09;5052375;28;20033;-78
2023/06/12 07:45:24;;;;;;;3.78;2.60;;;;;;;24.59;75.91;94270.13;5058997;28;20033;-78
2023/06/12 07:47:52;;;;;;;3.22;2.90;;;;;;;24.19;78.57;94275.63;5061064;28;20032;-77
2023/06/12 07:50:19;;;;;;;3.25;2.75;;;;;;;25.39;75.04;94267.19;5060118;28;20020;-77
2023/06/12 07:52:44;;;;;;;2.85;2.50;;;;;;;24.11;71.57;94268.25;5060367;28;20513;-77
2023/06/12 07:55:10;;;;;;;6.53;2.70;;;;;;;25.34;72.05;94261.91;5059927;28;20016;-77
2023/06/12 07:57:36;;;;;;;3.00;2.70;;;;;;;25.07;72.07;94270.38;5061272;28;20501;-78
2023/06/12 08:00:05;;;;;;;4.13;2.72;;;;;;;24.75;73.50;94265.53;5060757;28;20028;-81
2023/06/12 08:02:31;;;;;;;3.97;2.80;;;;;;;24.57;72.57;94266.97;5043380;28;20048;-78
2023/06/12 08:04:59;;;;;;;5.35;2.67;;;;;;;24.88;75.62;94256.19;5061744;28;20040;-78
2023/06/12 08:07:26;;;;;;;5.25;2.50;;;;;;;25.60;73.52;94263.28;5059692;28;20037;-79
2023/06/12 08:09:52;;;;;;;5.05;2.78;;;;;;;25.36;72.11;94262.44;5044715;28;20544;-77
2023/06/12 08:12:17;;;;;;;4.15;2.55;;;;;;;25.00;73.88;94257.44;5044163;28;20031;-77
2023/06/12 08:14:44;;;;;;;3.17;2.67;;;;;;;25.29;69.57;94259.31;5043641;28;20020;-78
2023/06/12 08:17:11;;;;;;;4.03;2.20;;;;;;;24.38;70.87;94258.06;5044891;28;20055;-79
2023/06/12 08:19:36;;;;;;;5.50;2.80;;;;;;;24.69;68.37;94261.34;5043238;28;20028;-79
2023/06/12 08:22:03;;;;;;;2.97;2.55;;;;;;;25.15;67.30;94253.84;5044206;28;20067;-77
2023/06/12 08:24:30;;;;;;;3.53;3.00;;;;;;;25.08;70.82;94256.81;5059556;28;20462;-77
2023/06/12 08:26:57;;;;;;;6.65;2.40;;;;;;;24.79;68.98;94242.69;5058286;28;20413;-77
2023/06/12 08:29:22;;;;;;;3.42;2.30;;;;;;;25.11;72.54;94256.25;5050142;28;20058;-77
2023/06/12 08:31:48;;;;;;;4.28;2.50;;;;;;;25.06;73.79;94250.22;5050372;28;20112;-78
2023/06/12 08:34:13;;;;;;;5.20;2.75;;;;;;;24.85;73.01;94254.09;5040773;28;20036;-77
2023/06/12 08:36:39;;;;;;;4.50;2.67;;;;;;;24.67;70.26;94250.22;5041223;28;20512;-77
2023/06/12 08:39:05;;;;;;;4.45;2.45;;;;;;;25.21;67.64;94251.94;5052308;28;20438;-77
2023/06/12 08:41:34;;;;;;;3.20;2.50;;;;;;;25.48;65.97;94250.38;5060480;28;20489;-76
2023/06/12 08:44:00;;;;;;;4.75;2.40;;;;;;;25.55;67.33;94245.56;5044205;28;20083;-79
2023/06/12 08:46:28;;;;;;;4.10;2.63;;;;;;;25.57;68.74;94243.41;5059545;28;20486;-79
2023/06/12 08:48:54;;;;;;;5.10;2.40;;;;;;;25.65;69.18;94249.97;5043922;28;20029;-80
2023/06/12 08:51:20;;;;;;;3.72;2.78;;;;;;;25.41;72.21;94241.94;5060102;28;20036;-76
2023/06/12 08:53:47;;;;;;;4.75;2.40;;;;;;;25.52;73.61;94248.78;5059412;28;20047;-76
2023/06/12 08:56:12;;;;;;;4.47;2.63;;;;;;;25.53;74.30;94250.34;5057482;28;20146;-76
2023/06/12 08:58:38;;;;;;;4.60;2.55;;;;;;;25.32;74.49;94246.28;5046945;28;20590;-76
2023/06/12 09:01:04;;;;;;;3.67;2.22;;;;;;;24.79;68.53;94245.34;5046832;28;20045;-77
2023/06/12 09:03:31;;;;;;;3.72;2.40;;;;;;;24.30;68.29;94250.72;5043859;28;20075;-77
2023/06/12 09:05:59;;;;;;;5.28;2.47;;;;;;;24.02;70.93;94251.31;5049971;28;20101;-80
2023/06/12 09:08:25;;;;;;;3.65;3.10;;;;;;;24.66;67.80;94244.13;5059554;28;20089;-77
2023/06/12 09:10:52;;;;;;;5.60;2.33;;;;;;;24.23;70.19;94249.41;5060604;28;20488;-76
2023/06/12 09:13:17;;;;;;;4.28;2.88;;;;;;;24.23;67.58;94244.13;5060318;28;20029;-79
2023/06/12 09:15:50;;;;;;;4.85;2.60;;;;;;;24.11;72.41;94247.06;5060216;28;20056;-78
2023/06/12 09:18:18;;;;;;;3.80;2.40;;;;;;;23.87;72.70;94238.16;5057077;28;20738;-76
2023/06/12 09:20:43;;;;;;;2.38;2.17;;;;;;;24.41;70.64;94241.63;5043610;28;20125;-77
2023/06/12 09:23:10;;;;;;;3.33;2.25;;;;;;;23.86;70.83;94237.34;5042937;28;20493;-77
2023/06/12 09:25:40;;;;;;;4.30;2.42;;;;;;;23.99;67.35;94241.28;5048886;28;20116;-76
2023/06/12 09:28:08;;;;;;;3.88;2.85;;;;;;;24.27;68.82;94238.03;5052111;28;20032;-76
2023/06/12 09:30:41;;;;;;;2.95;2.65;;;;;;;24.63;68.41;94231.41;5028761;28;20029;-78
2023/06/12 09:33:08;;;;;;;5.55;2.17;;;;;;;24.18;70.61;94228.28;5065820;28;20086;-77
2023/06/12 09:35:49;;;;;;;4.05;2.65;;;;;;;24.70;72.41;94222.38;5046770;28;20115;-77
2023/06/12 09:38:14;;;;;;;4.72;2.13;;;;;;;25.23;66.81;94220.66;5029386;28;20028;-77
2023/06/12 09:40:40;;;;;;;3.47;2.67;;;;;;;24.92;65.38;94220.91;5043678;28;20040;-76
2023/06/12 09:43:06;;;;;;;2.63;2.42;;;;;;;24.59;73.13;94216.38;5029193;28;20025;-77
2023/06/12 09:45:31;;;;;;;4.05;2.42;;;;;;;25.42;68.48;94214.34;5048269;28;20434;-77
2023/06/12 09:47:57;;;;;;;4.60;2.67;;;;;;;24.57;71.30;94211.34;5042358;28;20409;-77
2023/06/12 09:50:25;;;;;;;5.10;3.20;;;;;;;23.98;73.58;94223.84;5058272;28;20477;-81
2023/06/12 09:52:54;;;;;;;4.10;2.50;;;;;;;24.28;73.00;94210.47;5059353;28;20903;-77
2023/06/12 09:55:19;;;;;;;;;;;;;;;24.50;73.82;94213.50;5058811;28;20046;-77
2023/06/12 09:57:48;;;;;;;3.33;2.38;;;;;;;24.38;73.20;94207.75;5051352;28;20357;-84
2023/06/12 10:00:16;;;;;;;;;;;;;;;24.79;69.92;94202.19;5047742;28;20017;-77
2023/06/12 10:02:46;;;;;;;2.83;2.55;;;;;;;24.81;69.34;94190.25;5051914;28;19924;-80
2023/06/12 10:05:17;;;;;;;4.65;2.90;;;;;;;25.52;73.54;94187.75;5053054;28;20074;-78
2023/06/12 10:07:48;;;;;;;6.43;2.92;;;;;;;24.95;74.80;94185.09;5057633;28;20032;-78
2023/06/12 10:10:15;;;;;;;3.10;2.67;;;;;;;24.88;76.65;94185.44;5049202;28;20033;-77
2023/06/12 10:12:41;;;;;;;3.60;2.65;;;;;;;24.33;75.12;94186.63;5058007;28;20027;-79
2023/06/12 10:15:07;;;;;;;4.47;2.65;;;;;;;24.77;71.61;94177.81;5058575;28;20488;-80
2023/06/12 10:17:33;;;;;;;6.00;2.78;;;;;;;24.73;74.65;94179.41;5055864;28;20166;-78
2023/06/12 10:19:59;;;;;;;3.40;2.72;;;;;;;24.87;75.52;94183.84;5058520;28;20103;-77
2023/06/12 10:22:24;;;;;;;6.57;2.80;;;;;;;24.37;72.59;94174.38;5059291;28;20021;-79
2023/06/12 10:24:50;;;;;;;8.57;3.00;;;;;;;24.34;73.35;94174.94;5041197;28;20032;-78
2023/06/12 10:27:18;;;;;;;7.07;2.40;;;;;;;25.04;70.70;94176.25;5045132;28;20033;-77
2023/06/12 10:29:43;;;;;;;3.38;2.80;;;;;;;24.75;72.70;94166.72;5053814;28;20036;-79
2023/06/12 10:32:10;;;;;;;5.03;2.70;;;;;;;24.88;68.93;94172.19;5042620;28;20083;-75
2023/06/12 10:34:40;;;;;;;4.53;2.97;;;;;;;25.06;65.29;94166.19;5054531;28;20021;-82
2023/06/12 10:37:25;;;;;;;5.88;3.33;;;;;;;25.15;70.92;94172.47;5051271;28;20042;-82
2023/06/12 10:40:12;;;;;;;5.18;3.03;;;;;;;24.63;69.85;94170.50;5061989;28;20024;-77
2023/06/12 10:42:43;;;;;;;4.00;2.58;;;;;;;24.24;71.70;94168.94;5062988;28;20969;-77
2023/06/12 10:45:16;;;;;;;5.47;2.72;;;;;;;24.80;72.30;94172.75;5055737;28;20166;-78
2023/06/12 10:47:42;;;;;;;3.08;2.47;;;;;;;24.70;74.06;94164.09;5063580;28;20502;-78
2023/06/12 10:50:09;;;;;;;5.57;2.95;;;;;;;24.28;71.27;94162.00;5062296;28;20056;-78
2023/06/12 10:52:35;;;;;;;6.53;2.90;;;;;;;24.21;76.75;94172.13;5060623;28;20401;-77
2023/06/12 10:55:17;;;;;;;2.72;2.53;;;;;;;24.22;75.60;94163.91;5061285;28;20028;-78
2023/06/12 10:57:49;;;;;;;6.60;2.70;;;;;;;23.67;73.30;94166.81;5036360;28;20021;-81
2023/06/12 11:00:20;;;;;;;5.80;2.92;;;;;;;24.39;75.67;94158.25;5062358;28;20036;-78
2023/06/12 11:03:06;;;;;;;3.13;2.78;;;;;;;24.64;76.09;94156.19;5041954;28;20056;-78
2023/06/12 11:05:33;;;;;;;6.03;2.75;;;;;;;24.13;71.67;94147.03;5058614;28;20067;-78
2023/06/12 11:08:01;;;;;;;4.93;3.00;;;;;;;23.96;74.59;94147.34;5060767;28;20028;-78
2023/06/12 11:10:27;;;;;;;5.25;3.10;;;;;;;24.11;73.40;94142.00;5045489;28;20038;-83
2023/06/12 11:12:53;;;;;;;5.13;2.78;;;;;;;24.84;72.28;94133.28;5043335;28;20667;-78
2023/06/12 11:15:20;;;;;;;6.20;2.67;;;;;;;24.98;71.83;94136.84;5058359;28;20151;-82
2023/06/12 11:17:46;;;;;;;7.63;2.58;;;;;;;24.65;70.54;94136.59;5053297;28;20103;-79
2023/06/12 11:20:13;;;;;;;4.68;2.80;;;;;;;24.33;71.72;94140.81;5061573;28;20033;-79
2023/06/12 11:22:38;;;;;;;4.82;2.70;;;;;;;24.58;72.01;94145.91;5054209;28;20554;-80
2023/06/12 11:25:05;;;;;;;2.85;2.60;;;;;;;24.50;72.96;94147.28;5062262;28;20111;-78
2023/06/12 11:27:30;;;;;;;3.92;2.45;;;;;;;24.55;75.57;94147.25;5053592;28;20546;-78
2023/06/12 11:29:57;;;;;;;5.47;2.70;;;;;;;24.36;71.53;94148.19;5060529;28;20024;-81
2023/06/12 11:32:22;;;;;;;5.50;3.58;;;;;;;24.51;78.70;94151.53;5037658;28;20426;-78
2023/06/12 11:34:51;;;;;;;3.63;2.90;;;;;;;24.46;85.42;94156.88;5058081;28;20031;-79
2023/06/12 11:37:18;;;;;;;2.88;2.50;;;;;;;24.27;86.44;94153.31;5040467;28;20488;-77